CET,Max TemperatureF,Mean TemperatureF,Min TemperatureF,Max Dew PointF,MeanDew PointF,Min DewpointF,Max Humidity, Mean Humidity, Min Humidity, Max Sea Level PressureIn, Mean Sea Level PressureIn, Min Sea Level PressureIn, Max VisibilityMiles, Mean VisibilityMiles, Min VisibilityMiles, Max Wind SpeedMPH, Mean Wind SpeedMPH, Max Gust SpeedMPH,PrecipitationIn, CloudCover, Events, WindDirDegrees
2011-12-1,64,52,39,50,46,39,100,85,59,30.39,30.35,30.33,5,3,2,5,2,,0.00,,,20
2011-12-2,59,52,46,55,51,46,100,92,82,30.27,30.22,30.18,4,3,2,6,2,,0.00,4,Fog-Rain,130
2011-12-3,66,56,46,57,53,46,100,90,64,30.18,30.12,30.09,6,5,2,16,4,,0.00,3,Fog-Rain,157
2011-12-4,62,56,51,59,55,52,100,89,77,30.06,30.04,30.01,6,6,3,9,5,,0.00,4,Rain,165
2011-12-5,62,60,59,57,54,52,88,78,68,29.92,29.86,29.80,6,5,2,16,10,,0.00,6,Rain,230
2011-12-6,60,52,44,52,46,41,100,81,63,30.01,29.93,29.89,6,5,5,10,2,,0.00,3,,334
2011-12-7,60,50,41,50,46,41,100,84,59,30.12,30.09,30.06,6,5,2,4,1,,0.00,2,Fog,-1
2011-12-8,64,52,39,52,46,39,100,84,56,30.24,30.17,30.12,6,5,5,9,2,,0.00,1,Fog,325
2011-12-9,62,52,42,55,50,43,100,89,68,30.30,30.23,30.18,6,5,3,10,2,,0.00,4,Rain,157
2011-12-10,62,54,46,55,53,46,100,90,72,30.15,30.10,30.06,6,4,2,9,2,,0.00,3,,159
2011-12-11,60,54,48,57,53,48,100,95,82,30.12,30.09,30.06,6,4,0,2,1,,0.00,2,Fog-Rain,-1
2011-12-12,62,56,51,55,54,50,94,89,72,30.04,29.98,29.95,6,5,1,13,8,,0.00,3,Rain-Thunderstorm,157
2011-12-13,59,50,41,48,45,41,100,90,59,30.15,30.11,30.04,5,3,1,2,1,,0.00,,Fog,-1
2011-12-14,62,55,48,57,54,45,93,85,82,30.12,30.09,30.06,6,6,5,12,4,,0.00,3,,158
2011-12-15,62,54,44,55,49,41,100,80,55,30.06,30.05,30.04,6,6,4,14,4,,0.00,2,,243
2011-12-16,62,50,39,52,48,39,100,76,55,30.04,29.81,29.50,6,6,3,17,8,28,0.00,3,,199
2011-12-17,51,44,35,39,34,30,93,66,50,29.89,29.66,29.53,6,6,5,14,4,,0.00,4,Rain,323
2011-12-18,46,40,33,39,37,34,100,87,66,29.77,29.74,29.71,6,6,4,20,6,25,0.00,4,Fog-Rain,61
2011-12-19,48,42,35,37,33,30,100,70,53,29.95,29.88,29.83,6,6,6,15,6,,0.00,1,,356
2011-12-20,48,40,32,32,28,25,87,57,40,30.04,29.98,29.92,6,6,6,9,4,,0.00,2,Rain,63
2011-12-21,53,45,37,30,26,23,65,50,33,29.95,29.93,29.92,,,,14,7,,0.00,,,7
2011-12-22,51,42,32,30,28,27,80,55,38,30.09,30.06,30.04,,,,15,9,,0.00,,,354
2011-12-23,60,46,32,36,33,28,93,62,36,30.18,30.14,30.12,5,5,5,15,4,,0.00,,,1
2011-12-24,51,40,30,48,41,30,100,87,71,30.09,29.97,29.89,6,4,3,12,4,18,0.00,3,Rain,147
2011-12-25,59,52,46,37,33,27,71,48,38,30.33,30.22,30.09,,,,18,14,,0.00,,,13
2011-12-26,64,53,39,34,27,23,65,42,27,30.48,30.44,30.42,,,,14,9,,0.00,,,16
2011-12-27,57,44,32,41,36,32,100,78,44,30.57,30.52,30.48,6,6,6,5,1,,0.00,,Fog,20
2011-12-28,55,42,30,39,36,30,100,83,51,30.45,30.39,30.33,5,4,4,5,2,,0.00,1,Fog,350
2011-12-29,53,43,33,45,39,34,100,85,62,30.21,30.12,30.04,6,4,2,6,4,,0.00,3,Rain,2
2011-12-30,53,43,33,43,38,34,100,78,58,29.98,29.90,29.83,6,4,3,18,1,,0.00,3,Fog-Rain-Thunderstorm,180
2011-12-31,53,44,33,34,29,25,87,62,33,30.12,30.08,30.04,5,5,5,7,4,,0.00,,,2